Details From KMSY - Louis Armstrong New Orleans Intl
To MMPR - Licenciado Gustavo Diaz Ordaz Intl
Flight Number -
Tags Generated
Created
Modified
Stats Distance 987 nm / 1,828 km
Max Altitude 0 ft / 0 m
Waypoints 3
Social Downloads 2
Likes 0
Share VATSIM

Download

Looking for another format? Having issues loading an existing format? Contact us
Advertisement - Login to hide

Notes

Generated

Route

KMSY SBICG MMPR

ID Type Via Altitude Latitude Longitude Leg Dist Tot Dist Heading (true) Name
O KMSY APT - 0 ft / 0 m 29.99177˚ -90.25724˚ - 0 nm - Louis Armstrong New Orleans Intl
SBICG FIX - 0 ft / 0 m 28.00000˚ -94.00000˚ 230 nm 230 nm 240° / 238° -
O MMPR APT - 0 ft / 0 m 20.67053˚ -105.26511˚ 756 nm 986 nm 237° / 232° -

Altitude Profile

Advertisement - Login to hide

Weather


0- 5 10 15 20 25 30 35+ Temperature / ° C

Clouds and Precipitation
Forecast for 2017-12-14 06:00 UTC. Updated an hour ago

Ground ~20,000 ft ~40,000 ft Winds

KMSY

Details ICAO KMSY (MSY)
Name Louis Armstrong New Orleans Intl
Region United States
Timezone America/Chicago (UTC-6.0)
Stats Elevation 3 ft / 1 m (AMSL)
Location 29.993349° -90.257406°
Runways 2
Magnetic Variation 0.732° W

METAR

KMSY 140553Z 20004KT 10SM CLR 08/06 A2999 RMK AO2 SLP158 T00830056 10128 20078 401670011 56012

Decode

TAF

TAF KMSY 140528Z 1406/1512 19004KT P6SM OVC250 FM142000 VRB03KT P6SM BKN200 FM150900 01008KT P6SM BKN100

Decode

Departure Runways

ID Width Length Bearing (true) Bearing (mag) Surface Threshold Offset Overrun Length
01 150 ft / 46 m 7,021 ft / 2,140 m 15.41° 16.14° Concrete 0 ft / 0 m 600 ft / 183 m
10 150 ft / 46 m 10,090 ft / 3,075 m 105.55° 106.28° Concrete 0 ft / 0 m 400 ft / 122 m
19 150 ft / 46 m 7,021 ft / 2,140 m 195.41° 196.14° Concrete 0 ft / 0 m 600 ft / 183 m
28 150 ft / 46 m 10,090 ft / 3,075 m 285.57° 286.30° Concrete 305 ft / 93 m 249 ft / 76 m

MMPR

Details ICAO MMPR (PVR)
Name LICENCIADO GUSTAVO DIAZ ORDAZ INTL
Region Mexico
Timezone America/Mexico_City (UTC-6.0)
Stats Elevation 23 ft / 7 m (AMSL)
Location 20.680069° -105.254153°
Runways 1
Magnetic Variation 6.890° E

METAR

MMPR 140547Z 03004KT 12SM SKC 21/18 A2998 RMK SLP150 52004 919

Decode

TAF

TAF MMPR 132330Z 1400/1506 25008KT P6SM BKN130 OVC280 TX29/1419Z TN18/1412Z BECMG 1403/1404 02005KT FM141200 30005KT 6SM HZ SCT020 PROB40 1412/1417 4SM -RA BKN020 OVC100 FM141800 24008KT P6SM BKN020 OVC100 PROB40 1422/1502 6SM -RA BKN020 OVC10

Decode

Destination Runways

ID Width Length Bearing (true) Bearing (mag) Surface Threshold Offset Overrun Length
04 148 ft / 45 m 10,221 ft / 3,116 m 47.05° 40.16° Asphalt 0 ft / 0 m 185 ft / 56 m
22 148 ft / 45 m 10,221 ft / 3,116 m 227.06° 220.17° Asphalt 0 ft / 0 m 185 ft / 56 m